Detalii statie RANDUNICA PREST ANDRID [00001984]

Toti senzorii

Date Temperatura solului [C]Precipitatii [mm]Voltaj baterie [mV]Leaf Wetness [Min]HC Air temperature [C]HC Relative humidity [%]Punctul de roua [C]
medieminmaxsumaultimatimpmedieminmaxmediemediemin
2018-12-09 15:00:00 4 3.9 4.1 0 7206 8.25 7.69 8.94 0 0 0
2018-12-09 16:00:00 4.2 4.1 4.4 0 7098 7.58 7.29 8.09 0 0 0
2018-12-09 17:00:00 4.4 4.2 4.5 0 7060 7.11 6.85 7.31 0 0 0
2018-12-09 18:00:00 4.4 4.3 4.5 0 7020 6.7 6.54 6.89 0 0 0
2018-12-09 19:00:00 4.4 4.4 4.5 0 7000 6.29 6.12 6.61 0 0 0
2018-12-09 20:00:00 4.4 4.2 4.5 0.2 6972 6.13 5.88 6.35 0 0 0
2018-12-09 21:00:00 4.4 4.4 4.5 0 6982 6.18 6 6.35 0 0 0
2018-12-09 22:00:00 4.4 4.3 4.5 0 6942 6.05 5.92 6.21 0 0 0
2018-12-09 23:00:00 4.4 4.4 4.5 0 6942 5.9 5.69 6.23 0 0 0
2018-12-10 00:00:00 4.4 4.4 4.5 0 6922 5.85 5.75 5.95 0 0 0
2018-12-10 01:00:00 4.4 4.4 4.5 0 6922 5.43 5.24 5.63 0 0 0
2018-12-10 02:00:00 4.3 4.3 4.5 0 6932 5.15 5.07 5.26 0 0 0
2018-12-10 03:00:00 4.3 4.2 4.4 0 6932 5.07 4.94 5.16 0 0 0
2018-12-10 04:00:00 4.3 4.2 4.4 0 6922 5.08 4.79 5.3 0 0 0
2018-12-10 05:00:00 4.2 4.2 4.3 0 6914 5.15 5 5.32 0 0 0
2018-12-10 06:00:00 4.2 4.2 4.3 0 6914 5.06 4.92 5.15 0 0 0
2018-12-10 07:00:00 4.1 4.1 4.3 0 6914 4.62 4.39 4.93 0 0 0
2018-12-10 08:00:00 4.2 4.1 4.3 0 6894 4.46 4.37 4.55 0 0 0
2018-12-10 09:00:00 4.1 4.1 4.3 0 6932 4.33 4 4.85 0 0 0
2018-12-10 10:00:00 4.1 4 4.3 0 6952 4.98 4.86 5.07 0 0 0
2018-12-10 11:00:00 4.1 4 4.3 0 7000 4.93 4.86 5.03 0 0 0
2018-12-10 12:00:00 4.2 4.2 4.3 0 6942 4.86 4.78 5 0 0 0
2018-12-10 13:00:00 4.4 4.3 4.5 0.2 6982 4.92 4.82 5.02 0 0 0
2018-12-10 14:00:00 4.5 4.4 4.6 0.2 7050 5.1 4.91 5.4 0 0 0
2018-12-10 15:00:00 4.5 4.4 4.6 0.2 7088 5.49 5.4 5.65 0 0 0
2018-12-10 16:00:00 4.7 4.6 4.8 0 7020 5.43 5.36 5.54 0 0 0
2018-12-10 17:00:00 4.7 4.6 4.8 0.2 6982 5.16 4.75 5.51 0 0 0
2018-12-10 18:00:00 4.8 4.7 4.9 0 6942 4.66 4.24 4.81 0 0 0
2018-12-10 19:00:00 4.7 4.6 4.8 0 6942 3.9 3.75 4.17 0 0 0
2018-12-10 20:00:00 4.7 4.6 4.8 0 6884 3.8 3.67 3.95 0 0 0
2018-12-10 21:00:00 4.6 4.6 4.7 0 6864 3.55 3.24 3.83 0 0 0
2018-12-10 22:00:00 4.5 4.5 4.7 0.2 6884 3.35 3.15 3.59 0 0 0
2018-12-10 23:00:00 4.5 4.5 4.6 0 6864 2.68 2.44 3.04 0 0 0